Time;durP1;ratioP1;P1;durP2;ratioP2;P2;SDS_P1;SDS_P2;PMS_P1;PMS_P2;Temp;Humidity;BMP_temperature;BMP_pressure;BME280_temperature;BME280_humidity;BME280_pressure;Samples;Min_cycle;Max_cycle;Signal;HPM_P1;HPM_P2
2023/06/18 03:38:21;;;;;;;1999.90;999.90;;;;;;;;;;5372558;22;20282;-72
2023/06/18 03:41:06;;;;;;;1999.90;999.90;;;;;;;;;;4991851;28;20234;-71
2023/06/18 03:43:51;;;;;;;1999.90;999.90;;;;;;;;;;4992870;28;20591;-69
2023/06/18 03:46:36;;;;;;;1999.90;999.90;;;;;;;;;;4993186;28;20283;-71
2023/06/18 03:49:21;;;;;;;1999.90;999.90;;;;;;;;;;4971001;28;20270;-74
2023/06/18 03:52:06;;;;;;;1999.90;999.90;;;;;;;;;;4972782;28;20904;-72
2023/06/18 03:54:53;;;;;;;1999.90;999.90;;;;;;;;;;4974104;28;20211;-71
2023/06/18 03:57:38;;;;;;;1999.90;999.90;;;;;;;;;;4973699;28;20229;-74
2023/06/18 04:00:23;;;;;;;1999.90;999.90;;;;;;;;;;4971427;28;20216;-72
2023/06/18 04:03:08;;;;;;;1999.90;999.90;;;;;;;;;;4967748;28;20708;-71
2023/06/18 04:05:52;;;;;;;1999.90;999.90;;;;;;;;;;4975321;28;20344;-71
2023/06/18 04:08:37;;;;;;;1999.90;999.90;;;;;;;;;;4970510;28;20237;-73
2023/06/18 04:11:23;;;;;;;1999.90;999.90;;;;;;;;;;4981249;28;20743;-73
2023/06/18 04:14:09;;;;;;;1999.90;999.90;;;;;;;;;;4972218;28;20682;-73
2023/06/18 04:16:54;;;;;;;1999.90;999.90;;;;;;;;;;4973667;28;20228;-72
2023/06/18 04:19:39;;;;;;;1999.90;999.90;;;;;;;;;;4973432;28;20208;-73
2023/06/18 04:22:24;;;;;;;1999.90;999.90;;;;;;;;;;4973582;28;20203;-72
2023/06/18 04:25:09;;;;;;;1999.90;999.90;;;;;;;;;;4972408;28;21000;-73
2023/06/18 04:27:56;;;;;;;1999.90;999.90;;;;;;;;;;4968594;28;20294;-72
2023/06/18 04:30:41;;;;;;;1999.90;999.90;;;;;;;;;;4972549;28;20801;-73
2023/06/18 04:33:26;;;;;;;1999.90;999.90;;;;;;;;;;4968936;28;20711;-73
2023/06/18 04:36:11;;;;;;;1999.90;999.90;;;;;;;;;;4973264;28;20646;-73
2023/06/18 04:38:55;;;;;;;1999.90;999.90;;;;;;;;;;4973001;28;20598;-74
2023/06/18 04:41:40;;;;;;;1999.90;999.90;;;;;;;;;;4973120;28;20875;-74
2023/06/18 04:44:28;;;;;;;1999.90;999.90;;;;;;;;;;4973200;28;20207;-73
2023/06/18 04:47:13;;;;;;;1999.90;999.90;;;;;;;;;;4954032;29;20584;-73
2023/06/18 04:49:58;;;;;;;1999.90;999.90;;;;;;;;;;4953915;29;20208;-74
2023/06/18 04:52:43;;;;;;;1999.90;999.90;;;;;;;;;;4953952;29;20228;-73
2023/06/18 04:55:28;;;;;;;1999.90;999.90;;;;;;;;;;4953731;29;20204;-73
2023/06/18 04:58:13;;;;;;;1999.90;999.90;;;;;;;;;;4953480;29;20243;-73
2023/06/18 05:01:00;;;;;;;1999.90;999.90;;;;;;;;;;4965101;28;20862;-72
2023/06/18 05:03:45;;;;;;;1999.90;999.90;;;;;;;;;;4973175;28;20220;-73
2023/06/18 05:06:31;;;;;;;1999.90;999.90;;;;;;;;;;4973309;28;20216;-71
2023/06/18 05:09:16;;;;;;;1999.90;999.90;;;;;;;;;;4972796;28;20228;-72
2023/06/18 05:12:01;;;;;;;1999.90;999.90;;;;;;;;;;4973216;28;20211;-73
2023/06/18 05:14:46;;;;;;;1999.90;999.90;;;;;;;;;;4973600;28;20326;-73
2023/06/18 05:17:32;;;;;;;1999.90;999.90;;;;;;;;;;4972997;28;20243;-74
2023/06/18 05:20:17;;;;;;;1999.90;999.90;;;;;;;;;;4976686;28;20251;-73
2023/06/18 05:23:01;;;;;;;1999.90;999.90;;;;;;;;;;4976571;28;20224;-74
2023/06/18 05:25:46;;;;;;;1999.90;999.90;;;;;;;;;;4972434;28;20220;-72
2023/06/18 05:28:32;;;;;;;1999.90;999.90;;;;;;;;;;4972753;28;20326;-70
2023/06/18 05:31:16;;;;;;;1999.90;999.90;;;;;;;;;;4975754;28;20203;-72
2023/06/18 05:34:03;;;;;;;1999.90;999.90;;;;;;;;;;4969863;28;20451;-70
2023/06/18 05:36:48;;;;;;;1999.90;999.90;;;;;;;;;;4968563;28;20228;-72
2023/06/18 05:39:33;;;;;;;1999.90;999.90;;;;;;;;;;4980023;28;20228;-73
2023/06/18 05:42:18;;;;;;;1999.90;999.90;;;;;;;;;;4979425;28;20295;-73
2023/06/18 05:45:03;;;;;;;1999.90;999.90;;;;;;;;;;4978175;28;20697;-73
2023/06/18 05:47:48;;;;;;;1999.90;999.90;;;;;;;;;;4973978;28;20229;-73
2023/06/18 05:50:34;;;;;;;1999.90;999.90;;;;;;;;;;4975632;28;20217;-73
2023/06/18 05:53:19;;;;;;;1999.90;999.90;;;;;;;;;;4981600;28;20205;-72
2023/06/18 05:56:05;;;;;;;1999.90;999.90;;;;;;;;;;4973540;28;20221;-74
2023/06/18 05:58:50;;;;;;;1999.90;999.90;;;;;;;;;;4974111;28;20385;-74
2023/06/18 06:01:35;;;;;;;1999.90;999.90;;;;;;;;;;4964416;28;20215;-74
2023/06/18 06:04:20;;;;;;;1999.90;999.90;;;;;;;;;;4975406;28;20707;-71
2023/06/18 06:07:07;;;;;;;1999.90;999.90;;;;;;;;;;4970063;28;20419;-74
2023/06/18 06:09:52;;;;;;;1999.90;999.90;;;;;;;;;;4975821;28;20691;-74
2023/06/18 06:12:36;;;;;;;1999.90;999.90;;;;;;;;;;4975774;28;20211;-74
2023/06/18 06:15:22;;;;;;;1999.90;999.90;;;;;;;;;;4976788;28;20578;-74
2023/06/18 06:18:07;;;;;;;1999.90;999.90;;;;;;;;;;4972444;28;20220;-73
2023/06/18 06:20:52;;;;;;;1999.90;999.90;;;;;;;;;;4980313;28;20232;-74
2023/06/18 06:23:38;;;;;;;1999.90;999.90;;;;;;;;;;4975511;28;20228;-73
2023/06/18 06:26:23;;;;;;;1999.90;999.90;;;;;;;;;;4978124;28;20271;-74
2023/06/18 06:29:08;;;;;;;1999.90;999.90;;;;;;;;;;4975289;28;20201;-73
2023/06/18 06:31:53;;;;;;;1999.90;999.90;;;;;;;;;;4975687;28;20279;-73
2023/06/18 06:34:38;;;;;;;1999.90;999.90;;;;;;;;;;4975429;28;20219;-74
2023/06/18 06:37:23;;;;;;;1999.90;999.90;;;;;;;;;;4971697;28;20309;-75
2023/06/18 06:40:10;;;;;;;1999.90;999.90;;;;;;;;;;4974994;28;20332;-73
2023/06/18 06:42:55;;;;;;;1999.90;999.90;;;;;;;;;;4975353;28;20203;-75
2023/06/18 06:45:41;;;;;;;1999.90;999.90;;;;;;;;;;4975357;28;20605;-74
2023/06/18 06:48:26;;;;;;;1999.90;999.90;;;;;;;;;;4972244;28;20320;-74
2023/06/18 06:51:11;;;;;;;1999.90;999.90;;;;;;;;;;4972678;28;20302;-74
2023/06/18 06:53:56;;;;;;;1999.90;999.90;;;;;;;;;;4972570;28;20216;-76
2023/06/18 06:56:42;;;;;;;1999.90;999.90;;;;;;;;;;4972610;28;20251;-74
2023/06/18 06:59:27;;;;;;;1999.90;999.90;;;;;;;;;;4971478;28;20744;-73
2023/06/18 07:02:12;;;;;;;1999.90;999.90;;;;;;;;;;4973000;28;20585;-74
2023/06/18 07:04:57;;;;;;;1999.90;999.90;;;;;;;;;;4972675;28;20298;-74
2023/06/18 07:07:42;;;;;;;1999.90;999.90;;;;;;;;;;4973005;28;20227;-77
2023/06/18 07:10:27;;;;;;;1999.90;999.90;;;;;;;;;;4971001;28;20215;-74
2023/06/18 07:13:14;;;;;;;1999.90;999.90;;;;;;;;;;4971973;28;20212;-74
2023/06/18 07:15:59;;;;;;;1999.90;999.90;;;;;;;;;;4969834;28;20563;-75
2023/06/18 07:18:44;;;;;;;1999.90;999.90;;;;;;;;;;4970504;28;20232;-74
2023/06/18 07:21:29;;;;;;;1999.90;999.90;;;;;;;;;;4971999;28;20275;-74
2023/06/18 07:24:14;;;;;;;1999.90;999.90;;;;;;;;;;4972415;28;20273;-74
2023/06/18 07:26:59;;;;;;;1999.90;999.90;;;;;;;;;;4969825;28;20331;-76
2023/06/18 07:29:45;;;;;;;1999.90;999.90;;;;;;;;;;4972194;28;20215;-75
2023/06/18 07:32:31;;;;;;;1999.90;999.90;;;;;;;;;;4971856;28;20706;-75
2023/06/18 07:35:16;;;;;;;1999.90;999.90;;;;;;;;;;4982521;28;20210;-73
2023/06/18 07:38:01;;;;;;;1999.90;999.90;;;;;;;;;;4976424;28;20248;-74
2023/06/18 07:40:46;;;;;;;1999.90;999.90;;;;;;;;;;4971919;28;20299;-74
2023/06/18 07:43:31;;;;;;;1999.90;999.90;;;;;;;;;;4972994;28;20211;-73
2023/06/18 07:46:17;;;;;;;1999.90;999.90;;;;;;;;;;4972645;28;20216;-72
2023/06/18 07:49:02;;;;;;;1999.90;999.90;;;;;;;;;;4973108;28;20309;-73
2023/06/18 07:51:47;;;;;;;1999.90;999.90;;;;;;;;;;4972194;28;20211;-73
2023/06/18 07:54:34;;;;;;;1999.90;999.90;;;;;;;;;;4968978;28;20704;-73
2023/06/18 07:57:19;;;;;;;1999.90;999.90;;;;;;;;;;4972273;28;21444;-74
2023/06/18 08:00:05;;;;;;;1999.90;999.90;;;;;;;;;;4971188;28;20223;-74
2023/06/18 08:02:51;;;;;;;1999.90;999.90;;;;;;;;;;4970822;28;20224;-73
2023/06/18 08:05:36;;;;;;;1999.90;999.90;;;;;;;;;;4971104;28;21279;-73
2023/06/18 08:08:21;;;;;;;1999.90;999.90;;;;;;;;;;4971492;28;20223;-70
2023/06/18 08:11:06;;;;;;;1999.90;999.90;;;;;;;;;;4970761;28;20693;-71
2023/06/18 08:13:51;;;;;;;1999.90;999.90;;;;;;;;;;4970167;28;20251;-73
2023/06/18 08:16:36;;;;;;;1999.90;999.90;;;;;;;;;;4967155;28;20215;-73
2023/06/18 08:19:22;;;;;;;1999.90;999.90;;;;;;;;;;4970962;28;21006;-74
2023/06/18 08:22:07;;;;;;;1999.90;999.90;;;;;;;;;;4969912;28;20259;-73
2023/06/18 08:24:52;;;;;;;1999.90;999.90;;;;;;;;;;4971415;28;20291;-74
2023/06/18 08:27:37;;;;;;;1999.90;999.90;;;;;;;;;;4969500;28;20232;-73
2023/06/18 08:30:22;;;;;;;1999.90;999.90;;;;;;;;;;4970887;28;21485;-73
2023/06/18 08:33:07;;;;;;;1999.90;999.90;;;;;;;;;;4971217;28;20347;-73
2023/06/18 08:35:53;;;;;;;1999.90;999.90;;;;;;;;;;4970987;28;20220;-73
2023/06/18 08:38:38;;;;;;;1999.90;999.90;;;;;;;;;;4969357;28;20234;-73
2023/06/18 08:41:23;;;;;;;1999.90;999.90;;;;;;;;;;4970577;28;20355;-72
2023/06/18 08:44:08;;;;;;;1999.90;999.90;;;;;;;;;;4972949;28;20208;-73
2023/06/18 08:46:57;;;;;;;1999.90;999.90;;;;;;;;;;4972518;28;20216;-73
2023/06/18 08:49:43;;;;;;;1999.90;999.90;;;;;;;;;;4970658;28;20654;-71
2023/06/18 08:52:30;;;;;;;1999.90;999.90;;;;;;;;;;4970755;28;20219;-73
2023/06/18 08:55:16;;;;;;;1999.90;999.90;;;;;;;;;;4971040;28;20339;-74
2023/06/18 08:58:02;;;;;;;1999.90;999.90;;;;;;;;;;4972483;28;20693;-73
2023/06/18 09:00:51;;;;;;;1999.90;999.90;;;;;;;;;;4971547;28;20208;-71
2023/06/18 09:03:37;;;;;;;1999.90;999.90;;;;;;;;;;4972989;28;20590;-73
2023/06/18 09:06:23;;;;;;;1999.90;999.90;;;;;;;;;;4976265;28;20266;-72
2023/06/18 09:09:10;;;;;;;1999.90;999.90;;;;;;;;;;4972235;28;20588;-73
2023/06/18 09:11:55;;;;;;;1999.90;999.90;;;;;;;;;;4973889;28;20227;-72
2023/06/18 09:14:40;;;;;;;1999.90;999.90;;;;;;;;;;4975888;28;20207;-72
2023/06/18 09:17:25;;;;;;;1999.90;999.90;;;;;;;;;;4974745;28;21041;-71
2023/06/18 09:20:11;;;;;;;1999.90;999.90;;;;;;;;;;4968435;28;20740;-72
2023/06/18 09:22:56;;;;;;;1999.90;999.90;;;;;;;;;;4973408;28;20347;-73
2023/06/18 09:25:49;;;;;;;1999.90;999.90;;;;;;;;;;4972913;28;20218;-72
2023/06/18 09:28:35;;;;;;;1999.90;999.90;;;;;;;;;;4968279;28;20896;-72
2023/06/18 09:31:25;;;;;;;1999.90;999.90;;;;;;;;;;4965938;28;20208;-72
2023/06/18 09:34:14;;;;;;;1999.90;999.90;;;;;;;;;;4968977;28;20196;-73
2023/06/18 09:36:59;;;;;;;1999.90;999.90;;;;;;;;;;4968493;28;20728;-70
2023/06/18 09:39:44;;;;;;;1999.90;999.90;;;;;;;;;;4969401;28;20224;-72
2023/06/18 09:42:30;;;;;;;1999.90;999.90;;;;;;;;;;4968196;28;21440;-71
2023/06/18 09:45:16;;;;;;;1999.90;999.90;;;;;;;;;;4968660;28;20271;-72
2023/06/18 09:48:01;;;;;;;1999.90;999.90;;;;;;;;;;4969153;28;21017;-73
2023/06/18 09:50:46;;;;;;;1999.90;999.90;;;;;;;;;;4968463;28;20216;-72
2023/06/18 09:53:31;;;;;;;1999.90;999.90;;;;;;;;;;4970183;28;20637;-73
2023/06/18 09:56:17;;;;;;;1999.90;999.90;;;;;;;;;;4966494;28;20304;-70
2023/06/18 09:59:03;;;;;;;1999.90;999.90;;;;;;;;;;4970570;28;20232;-71
2023/06/18 10:01:48;;;;;;;1999.90;999.90;;;;;;;;;;4965344;28;20212;-72
2023/06/18 10:04:34;;;;;;;1999.90;999.90;;;;;;;;;;4970919;28;20215;-72
2023/06/18 10:07:19;;;;;;;1999.90;999.90;;;;;;;;;;4970529;28;20232;-72
2023/06/18 10:10:05;;;;;;;1999.90;999.90;;;;;;;;;;4973748;28;20211;-71
2023/06/18 10:12:52;;;;;;;1999.90;999.90;;;;;;;;;;4971259;28;20426;-73
2023/06/18 10:15:38;;;;;;;1999.90;999.90;;;;;;;;;;4966929;28;20288;-73
2023/06/18 10:18:24;;;;;;;1999.90;999.90;;;;;;;;;;4973349;28;20354;-73
2023/06/18 10:21:09;;;;;;;1999.90;999.90;;;;;;;;;;4971886;28;20680;-73
2023/06/18 10:23:55;;;;;;;1999.90;999.90;;;;;;;;;;4973218;28;20748;-72
2023/06/18 10:26:41;;;;;;;1999.90;999.90;;;;;;;;;;4969945;28;20274;-72
2023/06/18 10:29:27;;;;;;;1999.90;999.90;;;;;;;;;;4972057;28;20207;-73
2023/06/18 10:32:14;;;;;;;1999.90;999.90;;;;;;;;;;4972895;28;20232;-74
2023/06/18 10:34:59;;;;;;;1999.90;999.90;;;;;;;;;;4971096;28;20343;-73
2023/06/18 10:37:45;;;;;;;1999.90;999.90;;;;;;;;;;4971595;28;20240;-74
2023/06/18 10:40:30;;;;;;;1999.90;999.90;;;;;;;;;;4968750;28;20288;-72
2023/06/18 10:43:15;;;;;;;1999.90;999.90;;;;;;;;;;4972305;28;20227;-74
2023/06/18 10:46:13;;;;;;;1999.90;999.90;;;;;;;;;;4969564;28;20316;-73
2023/06/18 10:49:16;;;;;;;1999.90;999.90;;;;;;;;;;4972351;28;20728;-73
2023/06/18 10:52:20;;;;;;;1999.90;999.90;;;;;;;;;;4972607;28;20204;-73
2023/06/18 10:55:08;;;;;;;1999.90;999.90;;;;;;;;;;4971692;28;20808;-73
2023/06/18 10:57:58;;;;;;;1999.90;999.90;;;;;;;;;;4971504;28;20602;-72
2023/06/18 11:00:44;;;;;;;1999.90;999.90;;;;;;;;;;4969071;28;20748;-72
2023/06/18 11:03:33;;;;;;;1999.90;999.90;;;;;;;;;;4971163;28;20764;-72
2023/06/18 11:06:28;;;;;;;1999.90;999.90;;;;;;;;;;4970732;28;21093;-72
2023/06/18 11:09:14;;;;;;;1999.90;999.90;;;;;;;;;;4970345;28;20691;-72
2023/06/18 11:12:00;;;;;;;1999.90;999.90;;;;;;;;;;4972577;28;20219;-72
2023/06/18 11:15:04;;;;;;;1999.90;999.90;;;;;;;;;;4968401;28;20255;-73
2023/06/18 11:17:50;;;;;;;1999.90;999.90;;;;;;;;;;4972155;28;20271;-72
2023/06/18 11:20:38;;;;;;;1999.90;999.90;;;;;;;;;;4975068;28;20243;-73
2023/06/18 11:23:25;;;;;;;1999.90;999.90;;;;;;;;;;4973754;28;20702;-73
2023/06/18 11:26:13;;;;;;;1999.90;999.90;;;;;;;;;;4976853;28;20215;-72
2023/06/18 11:28:59;;;;;;;1999.90;999.90;;;;;;;;;;4974806;28;20598;-73
2023/06/18 11:31:47;;;;;;;1999.90;999.90;;;;;;;;;;4972502;28;20574;-72
2023/06/18 11:34:32;;;;;;;1999.90;999.90;;;;;;;;;;4966720;28;20691;-73
2023/06/18 11:37:17;;;;;;;1999.90;999.90;;;;;;;;;;4969190;28;20242;-72
2023/06/18 11:40:07;;;;;;;1999.90;999.90;;;;;;;;;;4970894;28;20220;-72
2023/06/18 11:42:52;;;;;;;1999.90;999.90;;;;;;;;;;4971142;28;20351;-72
2023/06/18 11:45:38;;;;;;;1999.90;999.90;;;;;;;;;;4969837;28;20345;-73
2023/06/18 11:48:23;;;;;;;1999.90;999.90;;;;;;;;;;4970907;28;20735;-72
2023/06/18 11:51:08;;;;;;;1999.90;999.90;;;;;;;;;;4969640;28;20431;-72
2023/06/18 11:53:53;;;;;;;1999.90;999.90;;;;;;;;;;4970235;28;20215;-72
2023/06/18 11:56:40;;;;;;;1999.90;999.90;;;;;;;;;;4974202;28;20287;-72
2023/06/18 11:59:25;;;;;;;1999.90;999.90;;;;;;;;;;4972228;28;20232;-70
2023/06/18 12:02:11;;;;;;;1999.90;999.90;;;;;;;;;;4963361;28;20574;-72
2023/06/18 12:05:02;;;;;;;1999.90;999.90;;;;;;;;;;4971535;28;20291;-73
2023/06/18 12:07:47;;;;;;;1999.90;999.90;;;;;;;;;;4971180;28;20267;-71
2023/06/18 12:10:34;;;;;;;1999.90;999.90;;;;;;;;;;4967874;28;20212;-72
2023/06/18 12:13:25;;;;;;;1999.90;999.90;;;;;;;;;;4971474;28;20258;-73
2023/06/18 12:16:12;;;;;;;1999.90;999.90;;;;;;;;;;4971300;28;20259;-73
2023/06/18 12:19:03;;;;;;;1999.90;999.90;;;;;;;;;;4971535;28;20279;-73
2023/06/18 12:21:48;;;;;;;1999.90;999.90;;;;;;;;;;4971246;28;20200;-73
2023/06/18 12:24:33;;;;;;;1999.90;999.90;;;;;;;;;;4968680;28;20295;-73
2023/06/18 12:27:18;;;;;;;1999.90;999.90;;;;;;;;;;4970508;28;20244;-73
2023/06/18 12:30:06;;;;;;;1999.90;999.90;;;;;;;;;;4970276;28;20611;-73
2023/06/18 12:33:00;;;;;;;1999.90;999.90;;;;;;;;;;4970212;28;20272;-73
2023/06/18 12:35:46;;;;;;;1999.90;999.90;;;;;;;;;;4970660;28;20282;-73
2023/06/18 12:38:39;;;;;;;1999.90;999.90;;;;;;;;;;4970744;28;20236;-73
2023/06/18 12:41:25;;;;;;;1999.90;999.90;;;;;;;;;;4968672;28;20235;-72
2023/06/18 12:44:11;;;;;;;1999.90;999.90;;;;;;;;;;4968660;28;20577;-73
2023/06/18 12:46:57;;;;;;;1999.90;999.90;;;;;;;;;;4970001;28;20235;-73
2023/06/18 12:49:43;;;;;;;1999.90;999.90;;;;;;;;;;4971040;28;20698;-72
2023/06/18 12:52:29;;;;;;;1999.90;999.90;;;;;;;;;;4970754;28;20216;-72
2023/06/18 12:55:14;;;;;;;1999.90;999.90;;;;;;;;;;4971037;28;20716;-73
2023/06/18 12:57:59;;;;;;;1999.90;999.90;;;;;;;;;;4970718;28;20239;-72
2023/06/18 13:00:44;;;;;;;1999.90;999.90;;;;;;;;;;4970595;28;20223;-71
2023/06/18 13:03:31;;;;;;;1999.90;999.90;;;;;;;;;;4969089;28;20407;-72
2023/06/18 13:06:18;;;;;;;1999.90;999.90;;;;;;;;;;4970871;28;20340;-72
2023/06/18 13:09:04;;;;;;;1999.90;999.90;;;;;;;;;;4971177;28;20216;-72
2023/06/18 13:11:49;;;;;;;1999.90;999.90;;;;;;;;;;4967711;28;20283;-72
2023/06/18 13:14:34;;;;;;;1999.90;999.90;;;;;;;;;;4968830;28;20226;-72
2023/06/18 13:17:19;;;;;;;1999.90;999.90;;;;;;;;;;4970495;28;20603;-73
2023/06/18 13:20:08;;;;;;;1999.90;999.90;;;;;;;;;;4970407;28;20805;-73
2023/06/18 13:22:53;;;;;;;1999.90;999.90;;;;;;;;;;4970429;28;20240;-73
2023/06/18 13:25:38;;;;;;;1999.90;999.90;;;;;;;;;;4970418;28;20322;-72
2023/06/18 13:28:23;;;;;;;1999.90;999.90;;;;;;;;;;4969930;28;20236;-73
2023/06/18 13:31:08;;;;;;;1999.90;999.90;;;;;;;;;;4970295;28;20231;-72
2023/06/18 13:33:53;;;;;;;1999.90;999.90;;;;;;;;;;4970155;28;20211;-73
2023/06/18 13:36:40;;;;;;;1999.90;999.90;;;;;;;;;;4967170;28;20295;-73
2023/06/18 13:39:25;;;;;;;1999.90;999.90;;;;;;;;;;4971271;28;20227;-73
2023/06/18 13:42:10;;;;;;;1999.90;999.90;;;;;;;;;;4977275;28;20290;-72
2023/06/18 13:44:55;;;;;;;1999.90;999.90;;;;;;;;;;4974853;28;20219;-72
2023/06/18 13:47:40;;;;;;;1999.90;999.90;;;;;;;;;;4972016;28;20231;-73
2023/06/18 13:50:26;;;;;;;1999.90;999.90;;;;;;;;;;4972317;28;20619;-72
2023/06/18 13:53:12;;;;;;;1999.90;999.90;;;;;;;;;;4969705;28;20563;-72
2023/06/18 13:55:57;;;;;;;1999.90;999.90;;;;;;;;;;4972907;28;20696;-72
2023/06/18 13:58:42;;;;;;;1999.90;999.90;;;;;;;;;;4970886;28;20235;-73
2023/06/18 14:01:28;;;;;;;1999.90;999.90;;;;;;;;;;4973902;28;20236;-72
2023/06/18 14:04:13;;;;;;;1999.90;999.90;;;;;;;;;;4971600;28;20324;-73
2023/06/18 14:06:58;;;;;;;1999.90;999.90;;;;;;;;;;4972253;28;20231;-71
2023/06/18 14:09:44;;;;;;;1999.90;999.90;;;;;;;;;;4972695;28;20214;-73
2023/06/18 14:12:29;;;;;;;1999.90;999.90;;;;;;;;;;4975525;28;20227;-71
2023/06/18 14:15:14;;;;;;;1999.90;999.90;;;;;;;;;;4976695;28;20275;-71
2023/06/18 14:17:59;;;;;;;1999.90;999.90;;;;;;;;;;4976305;28;20222;-73
2023/06/18 14:20:44;;;;;;;1999.90;999.90;;;;;;;;;;4976341;28;20279;-72
2023/06/18 14:23:29;;;;;;;1999.90;999.90;;;;;;;;;;4975099;28;20643;-72
2023/06/18 14:26:16;;;;;;;1999.90;999.90;;;;;;;;;;4971228;28;20455;-72
2023/06/18 14:29:01;;;;;;;1999.90;999.90;;;;;;;;;;4974930;28;20558;-71
2023/06/18 14:31:46;;;;;;;1999.90;999.90;;;;;;;;;;4973427;28;20791;-73
2023/06/18 14:34:31;;;;;;;1999.90;999.90;;;;;;;;;;4978574;28;20219;-72
2023/06/18 14:37:21;;;;;;;1999.90;999.90;;;;;;;;;;4973868;28;20235;-71
2023/06/18 14:40:07;;;;;;;1999.90;999.90;;;;;;;;;;4973626;28;20228;-70
2023/06/18 14:42:53;;;;;;;1999.90;999.90;;;;;;;;;;4969239;28;20261;-73
2023/06/18 14:45:38;;;;;;;1999.90;999.90;;;;;;;;;;4972125;28;20415;-72
2023/06/18 14:48:23;;;;;;;1999.90;999.90;;;;;;;;;;4975675;28;20240;-73
2023/06/18 14:51:08;;;;;;;1999.90;999.90;;;;;;;;;;4977618;28;20687;-71
2023/06/18 14:54:01;;;;;;;1999.90;999.90;;;;;;;;;;4977204;28;20211;-72
2023/06/18 14:56:50;;;;;;;1999.90;999.90;;;;;;;;;;4977288;28;20299;-71
2023/06/18 14:59:37;;;;;;;1999.90;999.90;;;;;;;;;;4976239;28;20287;-72
2023/06/18 15:02:22;;;;;;;1999.90;999.90;;;;;;;;;;4968710;28;20255;-73
2023/06/18 15:05:07;;;;;;;1999.90;999.90;;;;;;;;;;4971073;28;20348;-72
2023/06/18 15:07:52;;;;;;;1999.90;999.90;;;;;;;;;;4971350;28;20243;-73
2023/06/18 15:10:37;;;;;;;1999.90;999.90;;;;;;;;;;4969866;28;20232;-72
2023/06/18 15:13:22;;;;;;;1999.90;999.90;;;;;;;;;;4972436;28;20215;-72
2023/06/18 15:16:08;;;;;;;1999.90;999.90;;;;;;;;;;4968994;28;20336;-71
2023/06/18 15:18:54;;;;;;;1999.90;999.90;;;;;;;;;;4970187;28;20303;-73
2023/06/18 15:21:38;;;;;;;1999.90;999.90;;;;;;;;;;4969069;28;20231;-70
2023/06/18 15:24:23;;;;;;;1999.90;999.90;;;;;;;;;;4972312;28;20608;-70
2023/06/18 15:27:08;;;;;;;1999.90;999.90;;;;;;;;;;4965437;28;20740;-71
2023/06/18 15:29:53;;;;;;;1999.90;999.90;;;;;;;;;;4970536;28;20211;-72
2023/06/18 15:32:40;;;;;;;1999.90;999.90;;;;;;;;;;4967233;28;20204;-71
2023/06/18 15:35:24;;;;;;;1999.90;999.90;;;;;;;;;;4971171;28;20452;-71
2023/06/18 15:38:09;;;;;;;1999.90;999.90;;;;;;;;;;4971907;28;20629;-69
2023/06/18 15:40:54;;;;;;;1999.90;999.90;;;;;;;;;;4969640;28;20800;-71
2023/06/18 15:43:39;;;;;;;1999.90;999.90;;;;;;;;;;4971067;28;20211;-70
2023/06/18 15:46:24;;;;;;;1999.90;999.90;;;;;;;;;;4966757;28;20219;-71
2023/06/18 15:49:11;;;;;;;1999.90;999.90;;;;;;;;;;4970441;28;20215;-70
2023/06/18 15:51:56;;;;;;;1999.90;999.90;;;;;;;;;;4967401;28;20227;-70
2023/06/18 15:54:41;;;;;;;1999.90;999.90;;;;;;;;;;4971732;28;20211;-71
2023/06/18 15:57:26;;;;;;;1999.90;999.90;;;;;;;;;;4971232;28;20279;-71
2023/06/18 16:00:12;;;;;;;1999.90;999.90;;;;;;;;;;4966393;28;20331;-71
2023/06/18 16:02:57;;;;;;;1999.90;999.90;;;;;;;;;;4968773;28;20227;-71
2023/06/18 16:05:43;;;;;;;1999.90;999.90;;;;;;;;;;4968047;28;20212;-70
2023/06/18 16:08:28;;;;;;;1999.90;999.90;;;;;;;;;;4971381;28;20236;-72
2023/06/18 16:11:13;;;;;;;1999.90;999.90;;;;;;;;;;4967298;28;20215;-70
2023/06/18 16:13:58;;;;;;;1999.90;999.90;;;;;;;;;;4967866;28;20215;-70
2023/06/18 16:16:43;;;;;;;1999.90;999.90;;;;;;;;;;4968573;28;20219;-70
2023/06/18 16:19:29;;;;;;;1999.90;999.90;;;;;;;;;;4971442;28;20619;-71
2023/06/18 16:22:15;;;;;;;1999.90;999.90;;;;;;;;;;4970670;28;20227;-71
2023/06/18 16:25:00;;;;;;;1999.90;999.90;;;;;;;;;;4968892;28;20204;-70
2023/06/18 16:27:45;;;;;;;1999.90;999.90;;;;;;;;;;4969761;28;20935;-72
2023/06/18 16:30:30;;;;;;;1999.90;999.90;;;;;;;;;;4968625;28;20220;-70
2023/06/18 16:33:16;;;;;;;1999.90;999.90;;;;;;;;;;4971039;28;20332;-69
2023/06/18 16:36:01;;;;;;;1999.90;999.90;;;;;;;;;;4969379;28;20208;-70
2023/06/18 16:38:47;;;;;;;1999.90;999.90;;;;;;;;;;4970921;28;20985;-68
2023/06/18 16:41:33;;;;;;;1999.90;999.90;;;;;;;;;;4968935;28;20723;-69
2023/06/18 16:44:18;;;;;;;1999.90;999.90;;;;;;;;;;4964500;28;20227;-70
2023/06/18 16:47:03;;;;;;;1999.90;999.90;;;;;;;;;;4964581;28;20227;-70
2023/06/18 16:49:48;;;;;;;1999.90;999.90;;;;;;;;;;4965574;28;20217;-70
2023/06/18 16:52:33;;;;;;;1999.90;999.90;;;;;;;;;;4964314;28;20212;-70
2023/06/18 16:55:19;;;;;;;1999.90;999.90;;;;;;;;;;4957778;28;20363;-71
2023/06/18 16:58:08;;;;;;;1999.90;999.90;;;;;;;;;;4965009;28;20720;-70
2023/06/18 17:00:53;;;;;;;1999.90;999.90;;;;;;;;;;4966763;28;20239;-69
2023/06/18 17:03:38;;;;;;;1999.90;999.90;;;;;;;;;;4969212;28;20208;-70
2023/06/18 17:06:23;;;;;;;1999.90;999.90;;;;;;;;;;4963274;28;20709;-71
2023/06/18 17:09:08;;;;;;;1999.90;999.90;;;;;;;;;;4977546;28;20277;-70
2023/06/18 17:11:55;;;;;;;1999.90;999.90;;;;;;;;;;4973489;28;20696;-70
2023/06/18 17:14:39;;;;;;;1999.90;999.90;;;;;;;;;;4982116;28;20211;-71
2023/06/18 17:17:26;;;;;;;1999.90;999.90;;;;;;;;;;4987709;28;20230;-71
2023/06/18 17:20:12;;;;;;;1999.90;999.90;;;;;;;;;;4974113;28;20302;-70
2023/06/18 17:22:57;;;;;;;1999.90;999.90;;;;;;;;;;4975857;28;20224;-71
2023/06/18 17:25:42;;;;;;;1999.90;999.90;;;;;;;;;;4974145;28;20311;-71
2023/06/18 17:28:31;;;;;;;1999.90;999.90;;;;;;;;;;4972103;28;20736;-71
2023/06/18 17:31:15;;;;;;;1999.90;999.90;;;;;;;;;;4976377;28;20204;-71
2023/06/18 17:34:00;;;;;;;1999.90;999.90;;;;;;;;;;4973651;28;20219;-71
2023/06/18 17:36:46;;;;;;;1999.90;999.90;;;;;;;;;;4974591;28;20216;-71
2023/06/18 17:39:32;;;;;;;1999.90;999.90;;;;;;;;;;4969116;28;20216;-70
2023/06/18 17:42:17;;;;;;;1999.90;999.90;;;;;;;;;;4974757;28;20596;-68
2023/06/18 17:45:03;;;;;;;1999.90;999.90;;;;;;;;;;4981437;28;20815;-71
2023/06/18 17:47:48;;;;;;;1999.90;999.90;;;;;;;;;;4972029;28;20244;-71
2023/06/18 17:50:34;;;;;;;1999.90;999.90;;;;;;;;;;4966579;28;20445;-71
2023/06/18 17:53:19;;;;;;;1999.90;999.90;;;;;;;;;;4970371;28;20415;-71
2023/06/18 17:56:04;;;;;;;1999.90;999.90;;;;;;;;;;4968895;28;20296;-71
2023/06/18 17:58:49;;;;;;;1999.90;999.90;;;;;;;;;;4968275;28;20240;-71
2023/06/18 18:01:35;;;;;;;1999.90;999.90;;;;;;;;;;4969314;28;20228;-71
2023/06/18 18:04:20;;;;;;;1999.90;999.90;;;;;;;;;;4961012;28;20212;-71
2023/06/18 18:07:05;;;;;;;1999.90;999.90;;;;;;;;;;4975689;28;20751;-71
2023/06/18 18:09:50;;;;;;;1999.90;999.90;;;;;;;;;;4973053;28;20442;-71
2023/06/18 18:12:35;;;;;;;1999.90;999.90;;;;;;;;;;4972371;28;20211;-71
2023/06/18 18:15:20;;;;;;;1999.90;999.90;;;;;;;;;;4962545;28;20284;-70
2023/06/18 18:18:06;;;;;;;1999.90;999.90;;;;;;;;;;4975697;28;20585;-70
2023/06/18 18:20:51;;;;;;;1999.90;999.90;;;;;;;;;;4974231;28;20212;-70
2023/06/18 18:23:36;;;;;;;1999.90;999.90;;;;;;;;;;4971916;28;20224;-71
2023/06/18 18:26:21;;;;;;;1999.90;999.90;;;;;;;;;;4969266;28;20224;-70
2023/06/18 18:29:07;;;;;;;1999.90;999.90;;;;;;;;;;4972342;28;20309;-70
2023/06/18 18:31:54;;;;;;;1999.90;999.90;;;;;;;;;;4972420;28;20273;-70
2023/06/18 18:34:40;;;;;;;1999.90;999.90;;;;;;;;;;4971819;28;20275;-70
2023/06/18 18:37:25;;;;;;;1999.90;999.90;;;;;;;;;;4970935;28;20247;-71
2023/06/18 18:40:11;;;;;;;1999.90;999.90;;;;;;;;;;4973442;28;20219;-68
2023/06/18 18:42:56;;;;;;;1999.90;999.90;;;;;;;;;;4968293;28;20446;-71
2023/06/18 18:45:41;;;;;;;1999.90;999.90;;;;;;;;;;4968837;28;20211;-71
2023/06/18 18:48:26;;;;;;;1999.90;999.90;;;;;;;;;;4972746;28;20363;-70
2023/06/18 18:51:12;;;;;;;1999.90;999.90;;;;;;;;;;4971025;28;20215;-70
2023/06/18 18:53:58;;;;;;;1999.90;999.90;;;;;;;;;;4971817;28;20221;-70
2023/06/18 18:56:43;;;;;;;1999.90;999.90;;;;;;;;;;4970426;28;20324;-70
2023/06/18 18:59:27;;;;;;;1999.90;999.90;;;;;;;;;;4972884;28;20220;-71
2023/06/18 19:02:13;;;;;;;1999.90;999.90;;;;;;;;;;4969347;28;20563;-71